Time;durP1;ratioP1;P1;durP2;ratioP2;P2;SDS_P1;SDS_P2;PMS_P1;PMS_P2;Temp;Humidity;BMP_temperature;BMP_pressure;BME280_temperature;BME280_humidity;BME280_pressure;Samples;Min_cycle;Max_cycle;Signal;HPM_P1;HPM_P2
2022/04/21 00:00:35;;;;;;;9.35;5.28;;;6.10;99.90;;;;;;5096925;28;20039;-53
2022/04/21 00:03:01;;;;;;;8.88;5.10;;;6.10;99.90;;;;;;5095321;28;20232;-54
2022/04/21 00:05:28;;;;;;;10.40;5.78;;;6.10;99.90;;;;;;5095250;28;20798;-52
2022/04/21 00:07:54;;;;;;;9.40;5.47;;;6.10;99.90;;;;;;5093953;28;20126;-55
2022/04/21 00:10:22;;;;;;;8.95;5.63;;;6.10;99.90;;;;;;5095134;28;20326;-55
2022/04/21 00:12:49;;;;;;;9.90;4.93;;;6.00;99.90;;;;;;5096412;28;20043;-56
2022/04/21 00:15:17;;;;;;;8.68;5.88;;;6.00;99.90;;;;;;5097255;28;20051;-59
2022/04/21 00:17:43;;;;;;;11.55;6.43;;;;;;;;;;5095021;28;20043;-54
2022/04/21 00:20:10;;;;;;;10.23;5.85;;;6.00;99.90;;;;;;5095878;28;20500;-53
2022/04/21 00:25:26;;;;;;;11.27;6.13;;;6.10;99.90;;;;;;5096659;28;20604;-54
2022/04/21 00:27:54;;;;;;;9.82;6.57;;;6.10;99.90;;;;;;5094452;28;20430;-54
2022/04/21 00:30:19;;;;;;;12.32;7.35;;;6.10;99.90;;;;;;5096715;28;20065;-54
2022/04/21 00:32:46;;;;;;;10.10;6.35;;;6.10;99.90;;;;;;5095364;28;20043;-54
2022/04/21 00:35:13;;;;;;;11.00;8.07;;;6.00;99.90;;;;;;5096210;28;20558;-55
2022/04/21 00:37:50;;;;;;;11.75;6.75;;;5.90;99.90;;;;;;5096589;28;20126;-54
2022/04/21 00:40:17;;;;;;;11.18;6.63;;;5.70;99.90;;;;;;5095214;28;20093;-52
2022/04/21 00:42:44;;;;;;;9.55;6.85;;;5.80;99.90;;;;;;5095814;28;20031;-53
2022/04/21 00:45:10;;;;;;;11.85;6.97;;;5.80;99.90;;;;;;5095618;28;20067;-52
2022/04/21 00:47:43;;;;;;;14.02;6.80;;;5.80;99.90;;;;;;5095457;28;20085;-52
2022/04/21 00:50:11;;;;;;;9.52;6.47;;;5.70;99.90;;;;;;5094507;28;20109;-53
2022/04/21 00:52:38;;;;;;;10.75;6.38;;;5.60;99.90;;;;;;5094693;28;20071;-51
2022/04/21 00:55:06;;;;;;;11.38;7.00;;;5.50;99.90;;;;;;5095595;28;20093;-53
2022/04/21 00:57:33;;;;;;;9.50;6.22;;;5.60;99.90;;;;;;5095335;28;20051;-55
2022/04/21 01:00:00;;;;;;;11.68;6.45;;;5.50;99.90;;;;;;5094825;28;20043;-54
2022/04/21 01:02:46;;;;;;;14.55;7.38;;;5.30;99.90;;;;;;5128013;27;20046;-54
2022/04/21 01:05:30;;;;;;;12.73;7.72;;;5.40;99.90;;;;;;5095027;28;20103;-55
2022/04/21 01:08:07;;;;;;;11.55;7.50;;;5.30;99.90;;;;;;5095732;28;20031;-53
2022/04/21 01:10:35;;;;;;;11.30;7.25;;;5.80;99.90;;;;;;5094150;28;20039;-53
2022/04/21 01:13:04;;;;;;;12.05;7.72;;;5.30;99.90;;;;;;5094208;28;20092;-54
2022/04/21 01:15:29;;;;;;;10.18;7.13;;;5.20;99.90;;;;;;5094759;28;20040;-54
2022/04/21 01:17:55;;;;;;;11.60;7.38;;;5.40;99.90;;;;;;5094702;28;20032;-54
2022/04/21 01:20:25;;;;;;;14.50;7.55;;;5.20;99.90;;;;;;5093242;28;20035;-52
2022/04/21 01:22:52;;;;;;;13.02;7.47;;;5.20;99.90;;;;;;5095738;28;20035;-53
2022/04/21 01:25:19;;;;;;;14.02;8.43;;;5.20;99.90;;;;;;5095322;28;20079;-55
2022/04/21 01:27:46;;;;;;;13.32;8.45;;;5.20;99.90;;;;;;5094178;28;20045;-54
2022/04/21 01:30:12;;;;;;;11.05;7.20;;;5.10;99.90;;;;;;5095036;28;20516;-53
2022/04/21 01:32:42;;;;;;;15.38;7.80;;;5.00;99.90;;;;;;5093432;28;20131;-55
2022/04/21 01:35:09;;;;;;;10.43;7.88;;;5.10;99.90;;;;;;5095071;28;20035;-52
2022/04/21 01:43:06;;;;;;;14.32;8.02;;;5.10;99.90;;;;;;5093836;28;20823;-53
2022/04/21 01:45:32;;;;;;;11.68;8.73;;;5.10;99.90;;;;;;5094746;28;20031;-56
2022/04/21 01:47:58;;;;;;;13.82;8.65;;;5.10;99.90;;;;;;5094769;27;20385;-54
2022/04/21 01:50:25;;;;;;;15.10;8.60;;;5.10;99.90;;;;;;5093088;28;20042;-50
2022/04/21 01:52:53;;;;;;;16.80;9.98;;;5.00;99.90;;;;;;5093374;28;20092;-52
2022/04/21 01:55:19;;;;;;;15.23;10.23;;;5.00;99.90;;;;;;5094547;28;20035;-53
2022/04/21 01:57:47;;;;;;;14.57;10.10;;;5.00;99.90;;;;;;5094150;28;20039;-55
2022/04/21 02:00:13;;;;;;;15.43;11.15;;;4.90;99.90;;;;;;5092215;28;20044;-52
2022/04/21 02:02:39;;;;;;;15.43;11.35;;;4.90;99.90;;;;;;5093242;28;20096;-52
2022/04/21 02:05:08;;;;;;;17.83;12.65;;;4.90;99.90;;;;;;5094112;28;20032;-54
2022/04/21 02:07:36;;;;;;;19.45;11.82;;;5.00;99.90;;;;;;5093741;28;20042;-53
2022/04/21 02:10:03;;;;;;;21.10;13.05;;;5.00;99.90;;;;;;5093534;28;20181;-53
2022/04/21 02:12:29;;;;;;;24.42;13.88;;;5.00;99.90;;;;;;5091700;28;20525;-54
2022/04/21 02:14:54;;;;;;;19.75;13.90;;;5.00;99.90;;;;;;5094033;28;20051;-52
2022/04/21 02:17:20;;;;;;;22.95;13.73;;;5.20;99.90;;;;;;5094221;28;20050;-53
2022/04/21 02:19:46;;;;;;;21.23;14.07;;;5.20;99.90;;;;;;5093675;28;20201;-55
2022/04/21 02:22:14;;;;;;;21.58;14.32;;;5.20;99.90;;;;;;5091846;28;20075;-53
2022/04/21 02:24:40;;;;;;;20.73;13.98;;;5.10;99.90;;;;;;5094035;28;20502;-53
2022/04/21 02:27:06;;;;;;;20.63;14.23;;;5.10;99.90;;;;;;5093594;28;20066;-54
2022/04/21 02:29:34;;;;;;;21.35;12.60;;;5.20;99.90;;;;;;5093520;28;20107;-54
2022/04/21 02:32:01;;;;;;;16.02;11.70;;;5.10;99.90;;;;;;5093564;28;21046;-55
2022/04/21 02:34:28;;;;;;;18.52;12.98;;;5.00;99.90;;;;;;5094232;28;20074;-54
2022/04/21 02:36:54;;;;;;;20.25;13.25;;;5.20;99.90;;;;;;5093039;28;20195;-54
2022/04/21 02:39:20;;;;;;;20.75;13.43;;;5.20;99.90;;;;;;5091058;28;20088;-54
2022/04/21 02:41:46;;;;;;;21.15;14.07;;;5.20;99.90;;;;;;5093430;28;20492;-54
2022/04/21 02:44:11;;;;;;;16.92;12.23;;;5.10;99.90;;;;;;5094085;28;20043;-54
2022/04/21 02:46:37;;;;;;;16.17;11.23;;;5.10;99.90;;;;;;5092407;28;20234;-55
2022/04/21 02:49:03;;;;;;;18.33;13.43;;;5.20;99.90;;;;;;5092613;28;20066;-54
2022/04/21 02:51:32;;;;;;;18.42;12.02;;;4.90;99.90;;;;;;5093282;28;20044;-55
2022/04/21 02:59:28;;;;;;;16.83;11.80;;;4.80;99.90;;;;;;5093373;28;20539;-53
2022/04/21 03:01:54;;;;;;;18.08;11.98;;;4.80;99.90;;;;;;5095759;28;20035;-56
2022/04/21 03:04:20;;;;;;;15.15;10.93;;;4.70;99.90;;;;;;5096633;27;20046;-55
2022/04/21 03:06:47;;;;;;;16.85;12.55;;;4.80;99.90;;;;;;5098223;28;20039;-55
2022/04/21 03:09:14;;;;;;;18.17;13.13;;;4.80;99.90;;;;;;5096781;28;20066;-54
2022/04/21 03:11:40;;;;;;;22.55;13.73;;;4.70;99.90;;;;;;5096616;28;20046;-53
2022/04/21 03:14:05;;;;;;;19.85;12.07;;;4.60;99.90;;;;;;5097841;28;20553;-53
2022/04/21 03:16:33;;;;;;;17.92;12.88;;;4.60;99.90;;;;;;5097812;28;20463;-53
2022/04/21 03:18:59;;;;;;;22.90;13.20;;;4.70;99.90;;;;;;5095169;28;20061;-54
2022/04/21 03:24:19;;;;;;;23.63;13.60;;;4.60;99.90;;;;;;5095898;28;20047;-54
2022/04/21 03:26:45;;;;;;;18.70;13.00;;;4.70;99.90;;;;;;5096858;28;20104;-54
2022/04/21 03:29:12;;;;;;;18.77;12.30;;;4.80;99.90;;;;;;5095225;28;20062;-54
2022/04/21 03:31:38;;;;;;;16.48;12.02;;;5.00;99.90;;;;;;5097495;28;20056;-53
2022/04/21 03:34:05;;;;;;;17.25;10.93;;;5.00;99.90;;;;;;5096142;28;20083;-54
2022/04/21 03:36:32;;;;;;;16.15;11.07;;;5.20;99.90;;;;;;5095303;28;20044;-51
2022/04/21 03:38:58;;;;;;;15.82;10.82;;;5.40;99.90;;;;;;5095187;28;20403;-54
2022/04/21 03:41:24;;;;;;;15.55;10.27;;;5.50;99.90;;;;;;5097281;28;20035;-54
2022/04/21 03:43:50;;;;;;;14.18;10.30;;;;;;;;;;5096225;28;20298;-52
2022/04/21 03:46:15;;;;;;;18.20;10.95;;;5.40;99.90;;;;;;5096233;28;20035;-52
2022/04/21 03:48:43;;;;;;;16.02;10.43;;;5.40;99.90;;;;;;5095761;28;20461;-49
2022/04/21 03:51:10;;;;;;;15.65;10.25;;;5.50;99.90;;;;;;5094813;28;20065;-54
2022/04/21 03:53:35;;;;;;;14.75;9.80;;;5.60;99.90;;;;;;5094842;28;20592;-53
2022/04/21 03:56:01;;;;;;;16.75;9.18;;;5.60;99.90;;;;;;5094206;28;20036;-53
2022/04/21 03:58:27;;;;;;;14.70;9.07;;;5.70;99.90;;;;;;5095469;28;20381;-53
2022/04/21 04:00:53;;;;;;;13.85;9.85;;;;;;;;;;5096009;28;20036;-52
2022/04/21 04:03:19;;;;;;;13.95;9.23;;;5.80;99.90;;;;;;5094710;28;20053;-52
2022/04/21 04:05:44;;;;;;;12.20;8.27;;;5.80;99.90;;;;;;5096482;28;20046;-53
2022/04/21 04:10:56;;;;;;;16.80;9.18;;;5.80;99.90;;;;;;5094926;28;20036;-53
2022/04/21 04:13:23;;;;;;;15.43;8.40;;;5.80;99.90;;;;;;5095565;28;20560;-51
2022/04/21 04:15:50;;;;;;;14.50;8.82;;;6.00;99.90;;;;;;5096281;28;20039;-54
2022/04/21 04:18:16;;;;;;;16.23;8.90;;;5.90;99.90;;;;;;5095910;28;20070;-54
2022/04/21 04:20:42;;;;;;;13.55;8.48;;;6.00;99.90;;;;;;5095402;28;20044;-54
2022/04/21 04:23:08;;;;;;;13.65;8.90;;;5.90;99.90;;;;;;5096909;28;20047;-52
2022/04/21 04:25:35;;;;;;;12.45;8.93;;;6.10;99.90;;;;;;5094847;28;20054;-53
2022/04/21 04:28:04;;;;;;;12.73;9.50;;;6.00;99.90;;;;;;5093760;28;20043;-54
2022/04/21 04:30:31;;;;;;;12.32;7.88;;;5.80;99.90;;;;;;5092019;28;20052;-54
2022/04/21 04:32:57;;;;;;;14.35;9.23;;;6.00;99.90;;;;;;5094348;28;20051;-54
2022/04/21 04:35:24;;;;;;;11.65;9.05;;;5.90;99.90;;;;;;5093787;28;20522;-54
2022/04/21 04:37:52;;;;;;;13.23;9.15;;;6.00;99.90;;;;;;5094227;28;20082;-55
2022/04/21 04:40:18;;;;;;;19.65;9.57;;;6.10;99.90;;;;;;5093390;28;20074;-55
2022/04/21 04:42:46;;;;;;;12.10;8.48;;;6.00;99.90;;;;;;5094201;28;20565;-56
2022/04/21 04:47:56;;;;;;;13.52;8.65;;;6.00;99.90;;;;;;5093738;28;20058;-55
2022/04/21 04:50:22;;;;;;;12.32;8.70;;;6.00;99.90;;;;;;5094202;28;20043;-56
2022/04/21 04:52:48;;;;;;;14.55;8.50;;;6.00;99.90;;;;;;5094667;28;20101;-53
2022/04/21 04:55:14;;;;;;;13.18;8.00;;;6.20;99.90;;;;;;5094794;28;20047;-54
2022/04/21 04:57:40;;;;;;;13.32;7.53;;;6.20;99.90;;;;;;5094117;28;20042;-53
2022/04/21 05:00:08;;;;;;;14.45;9.05;;;6.30;99.90;;;;;;5095179;28;20039;-54
2022/04/21 05:02:34;;;;;;;13.65;8.77;;;6.50;99.90;;;;;;5095004;28;20573;-55
2022/04/21 05:05:00;;;;;;;14.30;8.32;;;6.60;99.90;;;;;;5093872;28;20039;-54
2022/04/21 05:07:26;;;;;;;11.38;7.65;;;6.60;99.90;;;;;;5094304;28;20043;-55
2022/04/21 05:09:51;;;;;;;12.63;7.53;;;6.60;99.90;;;;;;5093776;28;20035;-53
2022/04/21 05:12:18;;;;;;;12.60;8.02;;;6.70;99.90;;;;;;5094526;28;20458;-51
2022/04/21 05:14:44;;;;;;;14.15;8.82;;;6.70;99.90;;;;;;5094535;28;20040;-56
2022/04/21 05:17:09;;;;;;;11.60;7.57;;;6.90;99.90;;;;;;5094169;28;20506;-55
2022/04/21 05:19:35;;;;;;;13.02;7.90;;;6.90;99.90;;;;;;5094049;28;20038;-54
2022/04/21 05:22:04;;;;;;;12.25;7.82;;;7.00;99.90;;;;;;5094190;28;20469;-54
2022/04/21 05:24:33;;;;;;;13.55;8.63;;;7.10;99.90;;;;;;5094758;28;20039;-55
2022/04/21 05:27:00;;;;;;;13.25;7.85;;;7.10;99.90;;;;;;5094573;28;20058;-55
2022/04/21 05:32:17;;;;;;;11.10;7.53;;;7.30;99.90;;;;;;5093700;28;20500;-56
2022/04/21 05:34:45;;;;;;;12.27;7.88;;;7.50;99.90;;;;;;5093688;28;20066;-53
2022/04/21 05:37:11;;;;;;;11.02;7.78;;;8.00;99.90;;;;;;5092786;28;20035;-55
2022/04/21 05:39:37;;;;;;;10.32;7.15;;;8.50;99.90;;;;;;5093875;28;20047;-55
2022/04/21 05:42:06;;;;;;;10.65;7.07;;;9.10;99.90;;;;;;5094155;28;20211;-56
2022/04/21 05:44:31;;;;;;;10.27;7.53;;;9.40;99.90;;;;;;5093491;28;20061;-57
2022/04/21 05:46:58;;;;;;;11.23;6.63;;;9.70;99.90;;;;;;5093279;28;20495;-56
2022/04/21 05:49:24;;;;;;;11.25;7.20;;;10.30;99.90;;;;;;5092413;28;20036;-57
2022/04/21 05:51:56;;;;;;;13.07;7.32;;;10.90;99.90;;;;;;5093195;28;20039;-57
2022/04/21 05:54:21;;;;;;;;;;;11.70;99.90;;;;;;5091442;28;20042;-56
2022/04/21 05:56:48;;;;;;;10.18;7.00;;;12.10;99.90;;;;;;5092275;28;20094;-56
2022/04/21 05:59:14;;;;;;;13.63;7.53;;;12.90;99.90;;;;;;5093366;28;20031;-56
2022/04/21 06:01:39;;;;;;;10.77;6.90;;;15.30;99.90;;;;;;5092610;28;20046;-57
2022/04/21 06:04:05;;;;;;;12.18;6.75;;;13.90;99.90;;;;;;5093909;28;20074;-59
2022/04/21 06:06:31;;;;;;;9.43;6.53;;;14.90;99.90;;;;;;5092431;28;20035;-59
2022/04/21 06:08:57;;;;;;;9.02;6.63;;;14.20;99.90;;;;;;5093502;28;20144;-59
2022/04/21 06:11:24;;;;;;;11.25;7.00;;;14.40;99.90;;;;;;5089646;28;20047;-59
2022/04/21 06:13:51;;;;;;;8.55;6.32;;;14.40;99.90;;;;;;5093649;28;20521;-59
2022/04/21 06:16:17;;;;;;;9.35;6.90;;;14.80;99.90;;;;;;5093112;28;20111;-59
2022/04/21 06:18:43;;;;;;;10.45;6.97;;;15.50;99.90;;;;;;5091251;28;20560;-59
2022/04/21 06:21:09;;;;;;;10.18;6.53;;;16.10;99.90;;;;;;5093020;28;20126;-58
2022/04/21 06:23:35;;;;;;;12.27;6.93;;;16.80;99.90;;;;;;5093179;28;20497;-58
2022/04/21 06:26:03;;;;;;;18.02;6.80;;;17.30;99.90;;;;;;5092029;28;20077;-59
2022/04/21 06:28:29;;;;;;;185.55;127.07;;;19.20;99.90;;;;;;5093356;28;20044;-59
2022/04/21 06:30:55;;;;;;;963.72;780.70;;;19.20;99.90;;;;;;5094394;28;20043;-59
2022/04/21 06:33:21;;;;;;;446.90;413.88;;;18.40;99.90;;;;;;5094319;28;20055;-59
2022/04/21 06:35:46;;;;;;;190.27;172.27;;;20.10;99.90;;;;;;5092758;28;20055;-59
2022/04/21 06:38:13;;;;;;;9.57;5.75;;;19.20;99.90;;;;;;5092807;28;20058;-57
2022/04/21 06:40:39;;;;;;;9.38;5.68;;;19.30;99.90;;;;;;5093352;28;20043;-58
2022/04/21 06:48:40;;;;;;;9.85;5.68;;;19.20;99.90;;;;;;5092670;28;20058;-57
2022/04/21 06:51:06;;;;;;;10.52;5.75;;;19.40;99.90;;;;;;5091558;28;20040;-58
2022/04/21 06:53:34;;;;;;;9.50;5.63;;;20.80;99.90;;;;;;5085851;28;20042;-58
2022/04/21 06:56:00;;;;;;;8.48;5.80;;;20.30;99.90;;;;;;5093480;28;20046;-58
2022/04/21 06:58:26;;;;;;;9.32;5.45;;;20.50;99.90;;;;;;5091753;28;20706;-59
2022/04/21 07:00:51;;;;;;;8.50;5.15;;;20.70;99.90;;;;;;5092018;28;20035;-58
2022/04/21 07:03:17;;;;;;;8.15;5.60;;;20.60;99.10;;;;;;5093524;28;20396;-58
2022/04/21 07:05:44;;;;;;;5.35;2.80;;;21.50;98.10;;;;;;5093028;28;20158;-58
2022/04/21 07:08:10;;;;;;;4.10;2.60;;;21.70;95.50;;;;;;5090950;28;20039;-59
2022/04/21 07:10:36;;;;;;;6.15;3.00;;;21.20;95.50;;;;;;5089881;28;20397;-58
2022/04/21 07:13:11;;;;;;;5.65;3.15;;;23.00;94.40;;;;;;5092747;28;20043;-58
2022/04/21 07:15:38;;;;;;;5.63;3.00;;;21.60;93.30;;;;;;5093112;28;20211;-59
2022/04/21 07:18:03;;;;;;;9.35;3.20;;;21.70;92.50;;;;;;5091802;28;20123;-58
2022/04/21 07:20:30;;;;;;;5.57;2.90;;;21.50;93.30;;;;;;5092114;28;20038;-59
2022/04/21 07:22:56;;;;;;;4.47;2.50;;;21.90;91.80;;;;;;5093007;28;20592;-59
2022/04/21 07:25:21;;;;;;;6.70;2.80;;;21.80;91.10;;;;;;5092005;28;20044;-59
2022/04/21 07:27:47;;;;;;;5.75;2.50;;;23.20;91.80;;;;;;5092311;28;20456;-59
2022/04/21 07:30:13;;;;;;;6.90;3.08;;;21.00;91.70;;;;;;5091163;28;20649;-57
2022/04/21 07:32:39;;;;;;;5.65;2.88;;;20.90;91.50;;;;;;5094158;28;20404;-57
2022/04/21 07:35:05;;;;;;;4.78;2.70;;;20.90;92.00;;;;;;5092458;28;20088;-58
2022/04/21 07:37:32;;;;;;;3.83;2.10;;;20.90;92.00;;;;;;5091981;28;20408;-57
2022/04/21 07:39:58;;;;;;;4.55;2.20;;;20.60;91.90;;;;;;5091938;28;20043;-59
2022/04/21 07:42:27;;;;;;;7.45;2.60;;;21.40;92.40;;;;;;5092575;28;20050;-59
2022/04/21 07:44:53;;;;;;;6.22;2.40;;;19.80;92.70;;;;;;5093056;28;20051;-60
2022/04/21 07:47:18;;;;;;;7.07;2.88;;;19.50;92.80;;;;;;5091802;28;20035;-59
2022/04/21 07:49:47;;;;;;;5.20;2.45;;;19.70;93.20;;;;;;5094527;28;20028;-60
2022/04/21 07:55:18;;;;;;;3.10;1.98;;;18.40;92.70;;;;;;5094346;28;20078;-59
2022/04/21 07:57:46;;;;;;;4.45;2.13;;;18.00;94.20;;;;;;5095976;28;20040;-59
2022/04/21 08:00:13;;;;;;;5.97;2.40;;;17.70;94.50;;;;;;5095743;28;20507;-59
2022/04/21 08:02:42;;;;;;;4.45;2.03;;;18.80;94.60;;;;;;5096421;28;20579;-60
2022/04/21 08:05:09;;;;;;;6.18;2.75;;;18.00;95.00;;;;;;5095752;28;20511;-59
2022/04/21 08:07:36;;;;;;;4.63;2.30;;;19.20;96.20;;;;;;5095378;28;20053;-59
2022/04/21 08:10:06;;;;;;;5.32;2.40;;;17.00;96.00;;;;;;5094702;28;20051;-58
2022/04/21 08:12:39;;;;;;;4.80;2.08;;;16.50;96.60;;;;;;5095305;28;20035;-58
2022/04/21 08:15:07;;;;;;;5.53;1.83;;;16.30;96.20;;;;;;5094780;28;20645;-55
2022/04/21 08:17:32;;;;;;;4.13;1.77;;;16.10;95.70;;;;;;5094717;28;20047;-58
2022/04/21 08:19:58;;;;;;;2.53;1.23;;;16.00;95.50;;;;;;5095520;28;20047;-58
2022/04/21 08:22:24;;;;;;;3.22;1.48;;;17.30;95.10;;;;;;5095857;28;20331;-59
2022/04/21 08:33:05;;;;;;;5.05;1.65;;;16.60;94.40;;;;;;5095725;28;20044;-58
2022/04/21 08:35:30;;;;;;;6.65;1.50;;;16.90;93.80;;;;;;5094711;28;20096;-59
2022/04/21 08:37:56;;;;;;;3.50;1.42;;;18.70;95.00;;;;;;5095369;28;20147;-59
2022/04/21 08:40:23;;;;;;;4.43;1.65;;;18.20;94.90;;;;;;5093075;28;20048;-58
2022/04/21 08:42:52;;;;;;;2.92;1.38;;;16.20;94.50;;;;;;5094813;28;20096;-59
2022/04/21 08:45:18;;;;;;;3.97;1.70;;;16.20;95.20;;;;;;5094778;28;20161;-57
2022/04/21 08:47:47;;;;;;;4.82;1.27;;;16.20;95.30;;;;;;5095580;28;20393;-59
2022/04/21 08:50:16;;;;;;;4.00;1.70;;;16.60;95.30;;;;;;5096942;28;21197;-59
2022/04/21 08:52:43;;;;;;;4.88;1.95;;;17.10;95.20;;;;;;5094613;28;20032;-59
2022/04/21 08:55:12;;;;;;;4.03;1.60;;;16.70;95.50;;;;;;5094500;28;20067;-59
2022/04/21 08:57:37;;;;;;;4.90;1.73;;;16.80;95.60;;;;;;5094241;28;20504;-57
2022/04/21 09:00:08;;;;;;;4.38;2.05;;;17.30;95.40;;;;;;5094409;28;20380;-60
2022/04/21 09:02:44;;;;;;;5.18;2.28;;;17.10;95.20;;;;;;5094687;28;20135;-59
2022/04/21 09:05:10;;;;;;;5.28;1.73;;;17.80;95.80;;;;;;5094302;28;20038;-59
2022/04/21 09:07:49;;;;;;;7.90;1.90;;;16.70;95.70;;;;;;5094121;28;20036;-59
2022/04/21 09:10:17;;;;;;;3.15;1.67;;;17.00;96.00;;;;;;5094357;28;20427;-58
2022/04/21 09:12:42;;;;;;;5.03;1.98;;;17.00;96.10;;;;;;5094143;28;20027;-59
2022/04/21 09:15:12;;;;;;;4.22;1.88;;;17.30;95.40;;;;;;5094198;28;20381;-59
2022/04/21 09:17:45;;;;;;;4.47;2.05;;;16.70;96.10;;;;;;5095427;28;20047;-60
2022/04/21 09:20:12;;;;;;;4.07;1.73;;;17.50;96.10;;;;;;5089688;28;20057;-59
2022/04/21 09:22:42;;;;;;;5.35;2.15;;;17.10;95.90;;;;;;5095031;28;20084;-59
2022/04/21 09:25:09;;;;;;;4.47;2.10;;;17.20;96.10;;;;;;5093183;28;20043;-59
2022/04/21 09:27:44;;;;;;;3.97;2.22;;;17.50;96.30;;;;;;5092167;28;20035;-59
2022/04/21 09:30:12;;;;;;;5.55;2.40;;;17.70;95.60;;;;;;5093207;28;20054;-59
2022/04/21 09:32:55;;;;;;;4.30;2.45;;;18.70;96.60;;;;;;5093452;28;20047;-59
2022/04/21 09:35:28;;;;;;;4.68;2.50;;;17.00;95.20;;;;;;5094677;28;20587;-60
2022/04/21 09:37:56;;;;;;;6.03;2.60;;;16.70;97.10;;;;;;5093109;28;21105;-59
2022/04/21 09:40:25;;;;;;;8.40;2.22;;;16.40;97.60;;;;;;5093077;28;20064;-58
2022/04/21 09:43:01;;;;;;;8.45;2.47;;;17.30;97.90;;;;;;5092881;28;20858;-60
2022/04/21 09:48:29;;;;;;;5.85;2.47;;;16.90;98.70;;;;;;5093096;28;20147;-59
2022/04/21 09:51:05;;;;;;;5.43;2.60;;;15.90;98.40;;;;;;5092131;28;20039;-59
2022/04/21 09:53:44;;;;;;;5.05;2.50;;;16.80;98.90;;;;;;5092402;28;20558;-59
2022/04/21 09:56:10;;;;;;;4.97;2.40;;;16.10;98.50;;;;;;5093246;28;20044;-59
2022/04/21 09:58:39;;;;;;;5.25;2.50;;;17.70;98.50;;;;;;5093806;28;20140;-59
2022/04/21 10:01:06;;;;;;;4.93;2.78;;;16.40;98.00;;;;;;5092034;27;20039;-59
2022/04/21 10:03:34;;;;;;;5.22;2.60;;;16.50;98.80;;;;;;5092966;28;20047;-59
2022/04/21 10:06:00;;;;;;;6.25;2.80;;;16.50;98.40;;;;;;5093643;28;20233;-58
2022/04/21 10:08:26;;;;;;;5.60;2.78;;;16.20;98.80;;;;;;5092982;28;20194;-59
2022/04/21 10:10:53;;;;;;;6.82;2.30;;;17.80;98.60;;;;;;5092401;28;21154;-59
2022/04/21 10:13:19;;;;;;;8.48;2.10;;;18.40;98.90;;;;;;5092439;28;20465;-59
2022/04/21 10:15:45;;;;;;;4.50;2.10;;;16.70;97.60;;;;;;5091846;28;20046;-60
2022/04/21 10:18:16;;;;;;;4.72;2.55;;;16.80;98.20;;;;;;5093123;28;20043;-60
2022/04/21 10:20:44;;;;;;;4.10;2.25;;;16.30;98.60;;;;;;5092723;28;20123;-60
2022/04/21 10:23:17;;;;;;;7.97;2.50;;;17.40;98.00;;;;;;5092791;28;20039;-59
2022/04/21 10:25:43;;;;;;;4.75;2.35;;;17.30;97.80;;;;;;5092172;28;20248;-59
2022/04/21 10:28:38;;;;;;;4.95;2.78;;;16.80;97.90;;;;;;5092668;28;20035;-59
2022/04/21 10:31:28;;;;;;;7.03;2.40;;;16.70;98.10;;;;;;5091766;28;20063;-59
2022/04/21 10:34:03;;;;;;;6.63;2.80;;;16.80;97.80;;;;;;5091884;28;20046;-59
2022/04/21 10:36:46;;;;;;;5.75;2.58;;;16.80;98.10;;;;;;5090856;28;20126;-60
2022/04/21 10:39:18;;;;;;;5.35;2.53;;;16.90;98.40;;;;;;5093269;28;20317;-60
2022/04/21 10:41:44;;;;;;;5.68;2.47;;;17.20;98.60;;;;;;5091820;28;20066;-58
2022/04/21 10:44:25;;;;;;;8.00;2.28;;;17.20;98.60;;;;;;5093017;28;20027;-59
2022/04/21 10:47:26;;;;;;;6.97;2.57;;;17.20;97.50;;;;;;5092899;28;20165;-59
2022/04/21 10:50:03;;;;;;;5.05;2.22;;;17.00;97.10;;;;;;5093654;28;20044;-60
2022/04/21 10:57:47;;;;;;;9.63;2.53;;;17.20;97.70;;;;;;5124392;27;20047;-59
2022/04/21 11:00:32;;;;;;;3.97;2.40;;;17.70;97.80;;;;;;5092017;28;20126;-59
2022/04/21 11:03:26;;;;;;;5.88;2.67;;;17.50;97.90;;;;;;5091984;28;20036;-59
2022/04/21 11:06:10;;;;;;;4.88;2.22;;;17.50;97.00;;;;;;5048646;28;20048;-59
2022/04/21 11:08:36;;;;;;;7.63;2.05;;;17.40;96.50;;;;;;5049184;28;20131;-59
2022/04/21 11:11:03;;;;;;;3.47;2.10;;;17.40;98.60;;;;;;5048559;28;20135;-60
2022/04/21 11:13:48;;;;;;;3.75;1.77;;;17.50;97.40;;;;;;5048547;28;20068;-60
2022/04/21 11:16:45;;;;;;;4.20;2.28;;;17.30;96.70;;;;;;5048063;28;20793;-59
2022/04/21 11:19:53;;;;;;;4.70;2.25;;;17.30;97.00;;;;;;5048285;28;20075;-59
2022/04/21 11:22:38;;;;;;;4.88;2.25;;;17.20;97.20;;;;;;5028836;28;20061;-57
2022/04/21 11:25:07;;;;;;;3.47;1.77;;;17.50;97.40;;;;;;5032467;28;20060;-59
2022/04/21 11:27:34;;;;;;;3.30;1.88;;;17.40;96.80;;;;;;5032738;28;20037;-59
2022/04/21 11:30:06;;;;;;;4.13;2.00;;;17.80;97.60;;;;;;5032582;28;20052;-59
2022/04/21 11:32:32;;;;;;;4.80;2.45;;;17.60;96.40;;;;;;5032090;28;20084;-59
2022/04/21 11:35:02;;;;;;;3.90;2.05;;;17.90;96.50;;;;;;5032783;28;20128;-59
2022/04/21 11:37:50;;;;;;;6.95;2.45;;;17.50;96.50;;;;;;5031053;28;20079;-59
2022/04/21 11:40:25;;;;;;;4.95;1.92;;;17.50;97.30;;;;;;5032136;28;20583;-59
2022/04/21 11:42:53;;;;;;;4.93;2.13;;;17.60;96.70;;;;;;5052178;28;20052;-59
2022/04/21 11:45:24;;;;;;;4.45;2.03;;;17.60;96.40;;;;;;5054255;28;20040;-59
2022/04/21 11:47:50;;;;;;;3.70;2.10;;;17.40;97.70;;;;;;5072074;28;20036;-58
2022/04/21 11:50:24;;;;;;;3.22;1.73;;;17.70;97.60;;;;;;5072923;28;20467;-59
2022/04/21 11:52:52;;;;;;;5.88;2.40;;;17.40;96.90;;;;;;5072426;28;20058;-57
2022/04/21 11:55:26;;;;;;;4.10;2.38;;;17.60;97.40;;;;;;5043641;28;20055;-59
2022/04/21 11:57:52;;;;;;;4.50;2.22;;;17.70;98.80;;;;;;5085022;28;20074;-59
2022/04/21 12:06:28;;;;;;;5.57;2.33;;;17.70;97.80;;;;;;5095096;28;20082;-59
2022/04/21 12:08:38;;;;;;;6.38;2.30;;;18.80;96.50;;;;;;5093960;28;20074;-59
2022/04/21 12:11:09;;;;;;;5.15;2.28;;;17.40;96.30;;;;;;5095625;28;20579;-58
2022/04/21 12:13:35;;;;;;;5.60;2.25;;;17.20;96.90;;;;;;5095431;28;20036;-58
2022/04/21 12:16:03;;;;;;;5.03;2.55;;;17.40;97.70;;;;;;5095629;28;20130;-59
2022/04/21 12:18:47;;;;;;;5.70;2.03;;;17.50;97.50;;;;;;5094856;28;20134;-58
2022/04/21 12:21:13;;;;;;;6.50;2.33;;;17.80;97.40;;;;;;5095585;28;20039;-58
2022/04/21 12:23:39;;;;;;;5.75;3.28;;;17.50;97.80;;;;;;5094476;28;20467;-58
2022/04/21 12:26:08;;;;;;;6.10;3.25;;;17.60;99.20;;;;;;5095671;28;20062;-58
2022/04/21 12:28:48;;;;;;;7.13;2.22;;;18.20;99.10;;;;;;5093883;28;20481;-58
2022/04/21 12:31:19;;;;;;;6.35;3.42;;;17.50;97.90;;;;;;5094745;28;20078;-58
2022/04/21 12:33:44;;;;;;;7.93;3.67;;;17.50;99.20;;;;;;5092886;28;20036;-59
2022/04/21 12:36:12;;;;;;;7.03;3.22;;;18.50;99.70;;;;;;5094739;28;20050;-59
2022/04/21 12:39:00;;;;;;;5.55;3.13;;;19.20;99.90;;;;;;5094877;28;20614;-58
2022/04/21 12:41:27;;;;;;;7.00;3.78;;;17.70;99.90;;;;;;5094966;28;20122;-58
2022/04/21 12:43:53;;;;;;;7.40;3.00;;;17.00;99.90;;;;;;5096196;28;20078;-59
2022/04/21 12:46:19;;;;;;;6.25;3.20;;;16.60;99.90;;;;;;5094310;28;20122;-59
2022/04/21 12:48:49;;;;;;;7.75;3.35;;;17.40;99.90;;;;;;5095344;28;20040;-60
2022/04/21 12:51:20;;;;;;;9.77;3.50;;;18.30;99.90;;;;;;5093149;28;20131;-59
2022/04/21 12:53:58;;;;;;;11.73;3.40;;;16.40;99.90;;;;;;5093418;28;20492;-58
2022/04/21 12:56:35;;;;;;;7.03;4.10;;;16.40;99.90;;;;;;5093968;28;20489;-59
2022/04/21 12:59:03;;;;;;;10.02;4.10;;;16.40;99.90;;;;;;5095091;28;20055;-59
2022/04/21 13:01:29;;;;;;;5.55;3.40;;;17.40;99.90;;;;;;5093706;28;20092;-59
2022/04/21 13:03:59;;;;;;;8.50;3.33;;;16.60;99.90;;;;;;5094245;28;20036;-58
2022/04/21 13:06:29;;;;;;;60.75;46.60;;;16.70;99.90;;;;;;5094149;28;21248;-59
2022/04/21 13:08:56;;;;;;;424.08;381.73;;;16.50;99.90;;;;;;5094904;28;20069;-58
2022/04/21 13:11:23;;;;;;;63.10;52.65;;;16.70;99.90;;;;;;5094112;28;21077;-58
2022/04/21 13:13:52;;;;;;;237.77;214.73;;;18.50;99.90;;;;;;5091872;28;20031;-59
2022/04/21 13:16:18;;;;;;;499.58;453.98;;;18.70;99.90;;;;;;5093875;28;20112;-56
2022/04/21 13:18:45;;;;;;;665.85;605.97;;;17.30;99.90;;;;;;5093588;28;20092;-59
2022/04/21 13:23:55;;;;;;;591.60;538.88;;;17.70;99.90;;;;;;5094667;28;20086;-56
2022/04/21 13:26:28;;;;;;;127.20;111.45;;;18.40;99.90;;;;;;5094254;28;20495;-59
2022/04/21 13:28:55;;;;;;;553.80;508.58;;;17.10;99.90;;;;;;5093776;28;20047;-59
2022/04/21 13:34:05;;;;;;;1721.38;985.35;;;18.20;99.90;;;;;;5095185;28;20503;-59
2022/04/21 13:36:31;;;;;;;1343.75;864.25;;;17.40;99.90;;;;;;5095350;28;20096;-59
2022/04/21 13:38:58;;;;;;;1691.43;989.08;;;17.10;99.90;;;;;;5092133;28;20403;-55
2022/04/21 13:41:24;;;;;;;1867.00;939.58;;;16.80;99.90;;;;;;5093262;28;20446;-58
2022/04/21 13:43:50;;;;;;;1255.60;934.13;;;18.20;99.90;;;;;;5093178;28;20088;-57
2022/04/21 13:46:15;;;;;;;1030.00;795.50;;;17.00;99.90;;;;;;5092964;28;20629;-54
2022/04/21 13:48:41;;;;;;;1189.15;758.90;;;15.60;99.90;;;;;;5094011;28;20048;-59
2022/04/21 13:51:08;;;;;;;1540.40;927.78;;;17.20;99.90;;;;;;5094242;28;20138;-59